Time;durP1;ratioP1;P1;durP2;ratioP2;P2;SDS_P1;SDS_P2;PMS_P1;PMS_P2;Temp;Humidity;BMP_temperature;BMP_pressure;BME280_temperature;BME280_humidity;BME280_pressure;Samples;Min_cycle;Max_cycle;Signal;HPM_P1;HPM_P2
2021/12/26 00:02:24;;;;;;;167.80;18.70;;;;;;;6.38;75.34;95609.34;5072773;28;20171;-68
2021/12/26 00:04:51;;;;;;;143.00;17.60;;;;;;;6.55;75.04;95608.31;5060585;28;20452;-68
2021/12/26 00:07:17;;;;;;;146.60;16.57;;;;;;;6.41;75.14;95606.41;5065796;28;20182;-69
2021/12/26 00:09:42;;;;;;;95.83;15.60;;;;;;;6.58;74.85;95602.78;5071758;28;20967;-69
2021/12/26 00:12:09;;;;;;;64.30;15.03;;;;;;;6.17;75.58;95607.25;5072023;28;20419;-69
2021/12/26 00:14:34;;;;;;;165.13;18.07;;;;;;;6.00;76.31;95599.44;5074248;28;20281;-69
2021/12/26 00:17:00;;;;;;;208.07;18.80;;;;;;;5.89;76.96;95607.53;5076816;28;20855;-69
2021/12/26 00:19:26;;;;;;;132.97;17.07;;;;;;;6.11;76.83;95598.31;5072321;28;20183;-68
2021/12/26 00:21:51;;;;;;;147.10;19.40;;;;;;;6.26;75.79;95598.44;5068441;28;20267;-68
2021/12/26 00:24:19;;;;;;;337.43;23.80;;;;;;;6.04;76.13;95597.34;5072763;28;20206;-67
2021/12/26 00:26:44;;;;;;;211.33;18.57;;;;;;;6.35;75.80;95596.66;5055001;28;20179;-67
2021/12/26 00:29:10;;;;;;;122.83;16.93;;;;;;;6.46;75.16;95596.31;5072644;28;20412;-68
2021/12/26 00:31:35;;;;;;;303.60;22.10;;;;;;;6.09;75.50;95600.25;5070561;28;20194;-68
2021/12/26 00:34:01;;;;;;;102.63;16.83;;;;;;;6.40;75.57;95599.59;5066747;28;20244;-68
2021/12/26 00:36:27;;;;;;;359.67;21.10;;;;;;;6.23;75.48;95599.59;5069029;28;20187;-67
2021/12/26 00:38:52;;;;;;;201.90;19.77;;;;;;;6.09;76.22;95608.06;5069723;28;20186;-68
2021/12/26 00:41:18;;;;;;;240.13;20.90;;;;;;;6.04;76.85;95598.16;5073393;28;20183;-69
2021/12/26 00:43:45;;;;;;;265.70;20.40;;;;;;;5.58;78.14;95601.19;5075258;28;20220;-67
2021/12/26 00:46:10;;;;;;;381.93;23.90;;;;;;;5.42;78.87;95603.75;5057536;28;20178;-69
2021/12/26 00:48:36;;;;;;;239.47;19.80;;;;;;;5.66;78.17;95601.22;5072280;28;20443;-68
2021/12/26 00:51:02;;;;;;;344.40;21.27;;;;;;;5.54;78.16;95603.28;5070672;28;20640;-68
2021/12/26 00:53:29;;;;;;;195.63;19.70;;;;;;;6.11;77.26;95599.09;5072115;28;20641;-67
2021/12/26 00:55:55;;;;;;;304.27;20.87;;;;;;;5.33;78.79;95597.72;5071484;28;20432;-69
2021/12/26 00:58:20;;;;;;;171.10;17.83;;;;;;;5.87;77.73;95594.72;5063901;28;20179;-69
2021/12/26 01:00:48;;;;;;;374.60;23.50;;;;;;;5.97;77.20;95591.97;5058931;28;20432;-70
2021/12/26 01:03:15;;;;;;;380.07;23.57;;;;;;;5.49;77.99;95594.34;5062703;28;20178;-68
2021/12/26 01:05:43;;;;;;;249.60;23.50;;;;;;;5.96;76.97;95593.72;5069767;28;20511;-70
2021/12/26 01:08:12;;;;;;;323.27;22.40;;;;;;;5.73;77.55;95593.56;5073096;28;20425;-67
2021/12/26 01:10:49;;;;;;;167.97;18.80;;;;;;;6.04;77.05;95592.94;5072093;28;20445;-69
2021/12/26 01:13:38;;;;;;;97.07;19.50;;;;;;;6.08;76.69;95599.47;5056022;28;20452;-68
2021/12/26 01:16:06;;;;;;;127.97;21.17;;;;;;;6.13;77.10;95593.75;5069422;28;20459;-68
2021/12/26 01:18:35;;;;;;;42.53;18.00;;;;;;;6.47;76.38;95595.34;5066326;28;20512;-69
2021/12/26 01:21:15;;;;;;;288.73;22.10;;;;;;;5.92;76.93;95604.63;5070717;28;20482;-68
2021/12/26 01:23:40;;;;;;;277.13;21.00;;;;;;;5.59;78.38;95602.81;5068709;28;20845;-68
2021/12/26 01:26:06;;;;;;;351.40;24.13;;;;;;;5.48;78.97;95601.31;5071309;28;20420;-68
2021/12/26 01:28:32;;;;;;;347.20;24.40;;;;;;;5.55;78.67;95601.47;5072238;28;20217;-68
2021/12/26 01:30:58;;;;;;;401.37;22.50;;;;;;;5.10;80.52;95613.06;5072149;28;20221;-69
2021/12/26 01:33:26;;;;;;;280.47;20.77;;;;;;;5.47;79.08;95604.91;5067448;28;20429;-68
2021/12/26 01:35:52;;;;;;;294.37;22.83;;;;;;;5.79;77.77;95602.50;5073430;28;20923;-68
2021/12/26 01:38:18;;;;;;;90.30;17.20;;;;;;;6.01;77.86;95603.66;5075600;28;20507;-68
2021/12/26 01:40:49;;;;;;;146.77;19.50;;;;;;;5.85;77.78;95614.84;5075263;28;20633;-67
2021/12/26 01:43:17;;;;;;;155.23;18.70;;;;;;;5.93;77.19;95616.66;5066603;28;20899;-68
2021/12/26 01:45:43;;;;;;;207.83;18.83;;;;;;;5.73;77.74;95608.34;5073519;28;20432;-68
2021/12/26 01:48:08;;;;;;;184.30;17.17;;;;;;;5.89;77.40;95607.53;5073230;28;20455;-67
2021/12/26 01:50:35;;;;;;;257.57;17.40;;;;;;;5.45;78.07;95612.03;5075002;28;20463;-68
2021/12/26 01:53:02;;;;;;;58.03;16.50;;;;;;;6.01;77.61;95608.88;5073894;28;20637;-68
2021/12/26 01:55:45;;;;;;;110.37;16.17;;;;;;;6.10;76.56;95612.28;5074806;28;20444;-69
2021/12/26 01:58:27;;;;;;;57.60;13.83;;;;;;;6.33;76.02;95604.63;5070268;28;20527;-68
2021/12/26 02:00:59;;;;;;;58.70;13.97;;;;;;;6.47;75.52;95608.34;5074149;28;20424;-68
2021/12/26 02:03:24;;;;;;;260.93;16.00;;;;;;;5.65;77.21;95607.38;5069961;28;20502;-68
2021/12/26 02:05:50;;;;;;;70.40;13.80;;;;;;;6.04;76.90;95615.56;5061712;28;20811;-68
2021/12/26 02:08:16;;;;;;;110.90;16.33;;;;;;;6.14;75.99;95614.41;5066952;28;20187;-68
2021/12/26 02:10:42;;;;;;;153.37;17.40;;;;;;;6.11;75.52;95612.13;5074496;28;20306;-68
2021/12/26 02:13:08;;;;;;;91.30;13.77;;;;;;;6.14;76.12;95611.00;5074126;28;20449;-68
2021/12/26 02:15:34;;;;;;;92.43;14.50;;;;;;;6.35;75.66;95604.47;5073720;28;20680;-68
2021/12/26 02:18:00;;;;;;;192.97;13.97;;;;;;;6.01;75.88;95600.28;5073856;28;20182;-69
2021/12/26 02:20:56;;;;;;;50.23;13.03;;;;;;;6.11;76.20;95606.13;5073547;28;20415;-69
2021/12/26 02:23:23;;;;;;;76.03;14.00;;;;;;;6.20;75.61;95605.13;5069345;28;20193;-69
2021/12/26 02:28:26;;;;;;;113.23;20.40;;;;;;;6.33;75.11;95599.44;5074158;28;20435;-66
2021/12/26 02:30:54;;;;;;;114.07;17.07;;;;;;;6.29;74.98;95605.94;5073489;28;20966;-70
2021/12/26 02:33:19;;;;;;;65.30;14.07;;;;;;;6.26;75.27;95604.47;5070369;28;20420;-67
2021/12/26 02:35:47;;;;;;;237.03;17.10;;;;;;;6.24;74.82;95603.81;5070183;28;20791;-69
2021/12/26 02:38:13;;;;;;;210.10;15.37;;;;;;;5.79;76.62;95605.13;5073817;28;20270;-69
2021/12/26 02:40:40;;;;;;;155.20;15.37;;;;;;;5.81;76.67;95606.56;5072583;28;20512;-68
2021/12/26 02:43:07;;;;;;;129.83;15.63;;;;;;;6.02;76.03;95612.28;5068137;28;20422;-69
2021/12/26 02:45:33;;;;;;;82.57;13.43;;;;;;;6.07;76.00;95604.81;5073075;28;20456;-70
2021/12/26 02:47:59;;;;;;;63.73;13.60;;;;;;;6.12;75.60;95605.13;5073477;28;20443;-69
2021/12/26 02:50:28;;;;;;;152.10;15.07;;;;;;;5.95;75.83;95612.09;5072317;28;20959;-68
2021/12/26 02:52:55;;;;;;;28.97;12.30;;;;;;;6.29;75.40;95603.34;5073456;28;20194;-70
2021/12/26 02:55:21;;;;;;;22.00;11.67;;;;;;;6.45;74.72;95600.72;5071683;28;20440;-68
2021/12/26 02:57:53;;;;;;;28.87;12.60;;;;;;;6.59;74.54;95604.41;5068736;28;20519;-68
2021/12/26 03:00:21;;;;;;;23.97;11.57;;;;;;;6.66;74.28;95603.75;5072908;28;20423;-68
2021/12/26 03:02:54;;;;;;;83.70;12.20;;;;;;;6.42;74.49;95602.84;5064888;28;20452;-68
2021/12/26 03:05:21;;;;;;;32.63;11.03;;;;;;;6.32;74.73;95604.78;5066706;28;20434;-68
2021/12/26 03:07:48;;;;;;;101.10;13.60;;;;;;;6.13;75.13;95604.16;5071157;28;20828;-69
2021/12/26 03:10:21;;;;;;;37.00;11.87;;;;;;;6.53;74.29;95601.66;5072286;28;20453;-68
2021/12/26 03:12:51;;;;;;;94.67;13.07;;;;;;;6.37;74.02;95605.13;5073205;28;20432;-67
2021/12/26 03:15:17;;;;;;;97.07;12.60;;;;;;;6.37;74.10;95605.13;5048591;28;20441;-68
2021/12/26 03:17:43;;;;;;;35.20;11.37;;;;;;;6.42;74.29;95608.84;5071869;28;20428;-69
2021/12/26 03:20:11;;;;;;;21.97;10.67;;;;;;;6.60;74.11;95608.66;5072437;28;20617;-67
2021/12/26 03:22:37;;;;;;;31.97;11.80;;;;;;;6.51;74.00;95611.41;5062339;28;20663;-68
2021/12/26 03:25:04;;;;;;;26.87;11.73;;;;;;;6.61;73.94;95609.47;5071389;28;20491;-69
2021/12/26 03:27:30;;;;;;;20.77;10.33;;;;;;;6.78;73.41;95607.63;5063337;28;20918;-68
2021/12/26 03:29:55;;;;;;;23.13;12.10;;;;;;;6.90;73.11;95610.66;5072170;28;20461;-69
2021/12/26 03:32:22;;;;;;;19.30;11.10;;;;;;;6.94;73.20;95616.34;5072825;28;20543;-69
2021/12/26 03:34:49;;;;;;;28.60;11.00;;;;;;;6.96;72.86;95615.22;5064562;28;20285;-69
2021/12/26 03:37:15;;;;;;;73.40;13.00;;;;;;;6.58;73.03;95623.59;5071878;28;20428;-69
2021/12/26 03:39:40;;;;;;;37.17;12.03;;;;;;;6.68;73.46;95614.81;5074186;28;20873;-69
2021/12/26 03:42:06;;;;;;;17.83;10.63;;;;;;;6.82;73.08;95614.09;5073441;28;20543;-68
2021/12/26 03:44:32;;;;;;;18.87;11.60;;;;;;;6.90;73.04;95621.09;5073910;28;20210;-70
2021/12/26 03:46:58;;;;;;;27.73;11.10;;;;;;;6.95;72.73;95617.97;5070170;28;20931;-69
2021/12/26 03:49:24;;;;;;;21.23;11.60;;;;;;;7.00;73.09;95613.09;5066177;28;20180;-69
2021/12/26 03:51:49;;;;;;;17.17;10.50;;;;;;;7.00;73.14;95619.09;5072005;28;20617;-69
2021/12/26 03:54:15;;;;;;;49.73;12.43;;;;;;;6.98;72.45;95615.88;5071461;28;20285;-68
2021/12/26 03:56:40;;;;;;;17.77;11.07;;;;;;;7.05;72.36;95609.00;5065014;28;20574;-69
2021/12/26 03:59:06;;;;;;;20.90;10.60;;;;;;;6.91;71.98;95601.88;5069808;28;20190;-68
2021/12/26 04:01:32;;;;;;;22.23;10.83;;;;;;;6.89;72.71;95604.66;5071863;28;20851;-69
2021/12/26 04:03:58;;;;;;;19.67;10.83;;;;;;;6.86;72.90;95605.00;5065200;28;20285;-69
2021/12/26 04:06:23;;;;;;;18.30;10.23;;;;;;;6.89;72.54;95604.66;5071411;28;20501;-69
2021/12/26 04:08:49;;;;;;;19.57;10.40;;;;;;;6.98;72.35;95605.44;5071745;28;20276;-69
2021/12/26 04:11:14;;;;;;;21.60;10.77;;;;;;;6.63;73.32;95607.50;5071367;28;20680;-69
2021/12/26 04:13:40;;;;;;;23.70;10.80;;;;;;;6.82;72.38;95614.09;5064398;28;20194;-68
2021/12/26 04:16:06;;;;;;;26.27;10.93;;;;;;;6.95;72.51;95604.94;5071954;28;20562;-67
2021/12/26 04:18:32;;;;;;;20.80;9.90;;;;;;;6.96;71.88;95610.00;5071756;28;20194;-69
2021/12/26 04:20:57;;;;;;;18.20;9.80;;;;;;;6.83;72.21;95617.53;5071085;28;20179;-68
2021/12/26 04:23:23;;;;;;;40.10;10.30;;;;;;;6.86;71.82;95612.81;5067143;28;20273;-67
2021/12/26 04:25:48;;;;;;;23.33;10.43;;;;;;;6.24;73.36;95605.59;5071478;28;20648;-68
2021/12/26 04:28:17;;;;;;;39.80;11.10;;;;;;;6.23;74.00;95607.41;5071433;28;20235;-68
2021/12/26 04:30:46;;;;;;;32.87;11.60;;;;;;;6.38;73.73;95617.94;5068612;28;20211;-67
2021/12/26 04:33:12;;;;;;;20.50;11.70;;;;;;;6.51;73.42;95612.25;5069873;28;20457;-68
2021/12/26 04:35:38;;;;;;;130.30;11.60;;;;;;;6.43;72.89;95615.69;5066724;28;21085;-68
2021/12/26 04:38:04;;;;;;;48.73;11.17;;;;;;;6.66;72.82;95609.75;5071315;28;20412;-67
2021/12/26 04:40:30;;;;;;;22.23;11.50;;;;;;;6.74;72.58;95607.13;5069991;28;20424;-68
2021/12/26 04:42:56;;;;;;;28.57;13.23;;;;;;;6.81;72.44;95603.88;5070496;28;20273;-67
2021/12/26 04:45:22;;;;;;;99.70;11.63;;;;;;;6.61;72.47;95607.66;5071152;28;20502;-67
2021/12/26 04:47:49;;;;;;;44.10;11.87;;;;;;;6.75;72.62;95607.97;5070967;28;20229;-68
2021/12/26 04:50:20;;;;;;;48.43;12.80;;;;;;;6.67;72.53;95611.41;5069645;28;20460;-70
2021/12/26 04:52:46;;;;;;;25.80;12.40;;;;;;;6.82;72.37;95610.72;5064749;28;20426;-69
2021/12/26 04:55:14;;;;;;;30.57;11.87;;;;;;;6.87;72.61;95601.41;5053030;28;20519;-66
2021/12/26 04:57:39;;;;;;;34.23;12.10;;;;;;;6.91;72.20;95604.47;5055631;28;20618;-70
2021/12/26 05:00:07;;;;;;;51.60;11.90;;;;;;;6.94;72.16;95616.34;5066146;28;20478;-69
2021/12/26 05:02:36;;;;;;;98.67;15.23;;;;;;;6.79;72.17;95616.25;5051576;28;20183;-68
2021/12/26 05:05:03;;;;;;;54.27;10.90;;;;;;;6.58;72.75;95621.00;5059527;28;20506;-68
2021/12/26 05:07:29;;;;;;;116.30;13.40;;;;;;;6.74;72.39;95607.13;5057683;28;20916;-68
2021/12/26 05:09:54;;;;;;;28.73;12.00;;;;;;;6.84;72.17;95617.38;5054824;28;20464;-69
2021/12/26 05:12:22;;;;;;;437.07;23.90;;;;;;;6.72;72.27;95616.94;5052862;28;20583;-68
2021/12/26 05:14:48;;;;;;;100.23;14.10;;;;;;;6.57;73.05;95616.78;5058644;28;20531;-66
2021/12/26 05:17:13;;;;;;;52.37;12.67;;;;;;;6.79;72.85;95613.63;5016915;28;20429;-69
2021/12/26 05:19:39;;;;;;;67.70;13.33;;;;;;;6.83;72.20;95617.53;5031834;28;20190;-69
2021/12/26 05:22:05;;;;;;;41.60;12.23;;;;;;;6.91;72.43;95620.94;5036181;28;20205;-69
2021/12/26 05:24:30;;;;;;;131.60;15.00;;;;;;;6.88;72.37;95616.06;5049140;28;21606;-68
2021/12/26 05:26:56;;;;;;;116.93;13.90;;;;;;;6.92;72.20;95613.91;5049787;28;20281;-69
2021/12/26 05:29:21;;;;;;;53.40;14.00;;;;;;;6.92;72.27;95606.09;5050147;28;20213;-68
2021/12/26 05:31:47;;;;;;;96.30;15.20;;;;;;;6.89;72.37;95607.25;5050353;28;20207;-68
2021/12/26 05:34:12;;;;;;;411.83;23.80;;;;;;;6.80;72.24;95616.09;5041335;28;20207;-69
2021/12/26 05:36:38;;;;;;;97.80;14.60;;;;;;;6.87;72.70;95617.03;5049045;28;20624;-69
2021/12/26 05:39:04;;;;;;;32.33;14.17;;;;;;;6.97;72.29;95610.81;5049366;28;20701;-69
2021/12/26 05:41:32;;;;;;;119.13;13.43;;;;;;;7.03;71.85;95610.16;5050089;28;20258;-68
2021/12/26 05:43:58;;;;;;;57.03;14.40;;;;;;;7.02;72.37;95614.53;5049839;28;20234;-69
2021/12/26 05:46:24;;;;;;;28.73;13.87;;;;;;;7.00;72.19;95611.28;5049830;28;21090;-68
2021/12/26 05:48:50;;;;;;;169.13;16.33;;;;;;;7.01;72.32;95607.69;5050154;28;20444;-68
2021/12/26 05:51:16;;;;;;;24.37;13.60;;;;;;;7.08;71.99;95613.03;5050340;28;20294;-68
2021/12/26 05:53:42;;;;;;;26.90;12.63;;;;;;;7.20;71.79;95611.69;5050522;28;20742;-68
2021/12/26 05:56:08;;;;;;;38.13;13.20;;;;;;;7.21;71.99;95604.69;5048794;28;20521;-68
2021/12/26 05:58:34;;;;;;;21.83;12.80;;;;;;;7.21;71.99;95607.31;5027785;28;20938;-68
2021/12/26 06:00:59;;;;;;;24.10;12.77;;;;;;;7.21;72.23;95602.88;5048149;28;20562;-69
2021/12/26 06:03:25;;;;;;;24.50;13.27;;;;;;;7.25;72.12;95607.75;5015021;28;20499;-68
2021/12/26 06:05:51;;;;;;;39.57;13.00;;;;;;;7.35;71.76;95603.16;5050173;28;20194;-69
2021/12/26 06:08:17;;;;;;;24.87;12.90;;;;;;;7.43;71.89;95605.72;5054349;28;20182;-69
2021/12/26 06:10:43;;;;;;;23.10;13.07;;;;;;;7.44;71.58;95596.91;5053946;28;20203;-68
2021/12/26 06:13:09;;;;;;;21.07;12.43;;;;;;;7.43;71.54;95604.91;5052884;28;20505;-67
2021/12/26 06:15:34;;;;;;;39.17;15.90;;;;;;;7.47;71.46;95599.16;5054776;28;20507;-68
2021/12/26 06:18:00;;;;;;;25.83;13.33;;;;;;;7.37;71.83;95596.78;5049800;28;20190;-70
2021/12/26 06:20:25;;;;;;;21.07;13.07;;;;;;;7.46;71.46;95594.13;5050436;28;20271;-68
2021/12/26 06:22:51;;;;;;;31.47;13.40;;;;;;;7.51;71.62;95597.03;5057228;28;20223;-68
2021/12/26 06:25:17;;;;;;;37.60;12.97;;;;;;;7.53;71.03;95595.88;5053547;28;20214;-69
2021/12/26 06:27:43;;;;;;;29.60;14.10;;;;;;;7.57;71.49;95603.34;5053594;28;20626;-69
2021/12/26 06:30:09;;;;;;;27.00;13.53;;;;;;;7.58;71.67;95597.97;5053090;28;20206;-69
2021/12/26 06:32:35;;;;;;;23.93;13.70;;;;;;;7.45;71.56;95598.53;5053730;28;20998;-67
2021/12/26 06:35:01;;;;;;;27.80;13.97;;;;;;;7.56;71.34;95604.34;5052827;28;20453;-68
2021/12/26 06:37:28;;;;;;;28.13;12.20;;;;;;;7.65;71.43;95603.31;5053197;28;20178;-69
2021/12/26 06:39:54;;;;;;;33.13;13.93;;;;;;;7.69;71.35;95600.19;5053890;28;20426;-69
2021/12/26 06:42:19;;;;;;;30.50;13.23;;;;;;;7.60;71.38;95609.03;5060610;28;20956;-68
2021/12/26 06:44:45;;;;;;;52.70;13.67;;;;;;;7.59;71.77;95607.41;5053517;28;20309;-68
2021/12/26 06:47:11;;;;;;;22.27;12.83;;;;;;;7.69;70.92;95615.00;5053303;28;20231;-69
2021/12/26 06:49:37;;;;;;;33.17;13.27;;;;;;;7.76;71.31;95617.72;5051796;28;20180;-69
2021/12/26 06:52:04;;;;;;;36.10;14.53;;;;;;;7.66;71.45;95610.16;5052836;28;20187;-67
2021/12/26 06:54:30;;;;;;;34.20;15.07;;;;;;;7.72;71.00;95611.25;5049846;28;20532;-68
2021/12/26 06:56:55;;;;;;;27.23;13.47;;;;;;;7.71;71.16;95617.44;5049279;28;20429;-69
2021/12/26 06:59:21;;;;;;;25.20;15.47;;;;;;;7.72;70.96;95627.69;5052000;28;20179;-67
2021/12/26 07:01:47;;;;;;;30.67;15.67;;;;;;;7.73;70.97;95624.09;5053444;28;20183;-68
2021/12/26 07:04:12;;;;;;;28.73;14.30;;;;;;;7.73;71.12;95621.50;5045225;28;20194;-68
2021/12/26 07:06:38;;;;;;;25.63;13.00;;;;;;;7.64;71.28;95625.16;5058858;28;20178;-68
2021/12/26 07:09:04;;;;;;;26.37;13.97;;;;;;;7.52;71.93;95630.75;5072550;28;20178;-67
2021/12/26 07:11:30;;;;;;;30.97;14.27;;;;;;;7.57;71.37;95632.03;5021616;28;20201;-68
2021/12/26 07:13:56;;;;;;;28.40;13.70;;;;;;;7.66;71.46;95628.41;5072162;28;20445;-67
2021/12/26 07:16:23;;;;;;;29.50;14.20;;;;;;;7.66;71.68;95626.59;5073032;28;20530;-67
2021/12/26 07:18:50;;;;;;;24.70;13.83;;;;;;;7.63;71.23;95626.13;5072142;28;20431;-68
2021/12/26 07:21:17;;;;;;;32.37;15.80;;;;;;;7.57;71.47;95632.84;5072803;28;20421;-69
2021/12/26 07:23:42;;;;;;;28.97;14.80;;;;;;;7.59;71.15;95633.50;5069277;28;20751;-70
2021/12/26 07:26:08;;;;;;;32.43;14.63;;;;;;;7.64;71.92;95636.38;5072533;28;20443;-67
2021/12/26 07:28:33;;;;;;;32.80;14.97;;;;;;;7.54;71.80;95638.41;5073033;28;20201;-69
2021/12/26 07:30:59;;;;;;;37.50;18.87;;;;;;;7.67;71.61;95643.06;5071235;28;20206;-68
2021/12/26 07:33:25;;;;;;;38.20;17.40;;;;;;;7.74;71.61;95637.97;5072292;28;20182;-68
2021/12/26 07:35:51;;;;;;;35.33;16.77;;;;;;;7.78;71.80;95644.44;5064177;28;20199;-68
2021/12/26 07:38:18;;;;;;;32.43;16.17;;;;;;;7.87;71.22;95642.59;5072176;28;20178;-69
2021/12/26 07:40:45;;;;;;;29.53;14.47;;;;;;;7.86;71.38;95640.97;5070996;28;20555;-69
2021/12/26 07:43:11;;;;;;;29.97;14.57;;;;;;;7.88;70.96;95644.22;5072641;28;20423;-68
2021/12/26 07:45:37;;;;;;;34.17;16.50;;;;;;;7.88;71.65;95641.63;5072581;28;21010;-68
2021/12/26 07:48:03;;;;;;;31.17;15.80;;;;;;;7.91;71.14;95649.91;5072431;28;20429;-69
2021/12/26 07:50:29;;;;;;;29.97;15.90;;;;;;;7.92;70.88;95653.34;5071244;28;20308;-69
2021/12/26 07:52:58;;;;;;;35.97;15.30;;;;;;;7.61;71.82;95654.16;5071227;28;20436;-68
2021/12/26 07:55:24;;;;;;;28.17;15.47;;;;;;;7.75;72.40;95655.25;5071466;28;20458;-71
2021/12/26 07:57:50;;;;;;;26.07;14.37;;;;;;;7.91;71.47;95654.31;5068714;28;20428;-68
2021/12/26 08:00:17;;;;;;;25.67;15.50;;;;;;;7.55;72.29;95657.47;5071830;28;20202;-70
2021/12/26 08:02:43;;;;;;;28.07;15.00;;;;;;;7.82;71.84;95656.97;5066540;28;20482;-69
2021/12/26 08:05:08;;;;;;;32.13;16.43;;;;;;;7.94;71.55;95661.81;5070921;28;20448;-69
2021/12/26 08:07:34;;;;;;;29.30;16.83;;;;;;;8.05;71.11;95661.41;5066405;28;20187;-69
2021/12/26 08:10:02;;;;;;;32.70;16.63;;;;;;;8.02;70.99;95661.75;5071869;28;20285;-68
2021/12/26 08:12:28;;;;;;;33.00;16.03;;;;;;;8.08;70.97;95660.25;5071355;28;20425;-68
2021/12/26 08:14:53;;;;;;;33.50;16.50;;;;;;;8.11;71.03;95662.50;5071782;28;20510;-69
2021/12/26 08:17:19;;;;;;;26.50;15.57;;;;;;;8.12;70.66;95659.72;5072363;28;20193;-69
2021/12/26 08:19:44;;;;;;;30.57;16.50;;;;;;;8.17;70.20;95664.41;5072023;28;20198;-69
2021/12/26 08:22:10;;;;;;;27.33;16.13;;;;;;;8.11;71.06;95658.09;5068468;28;20182;-67
2021/12/26 08:24:35;;;;;;;27.50;16.40;;;;;;;8.22;70.87;95663.88;5072333;28;20625;-69
2021/12/26 08:27:01;;;;;;;29.83;16.63;;;;;;;8.19;70.31;95666.84;5061557;28;20276;-66
2021/12/26 08:29:27;;;;;;;25.27;14.87;;;;;;;8.07;71.12;95666.44;5063807;28;20178;-67
2021/12/26 08:31:56;;;;;;;35.27;18.83;;;;;;;8.01;71.72;95665.34;5070915;28;20218;-70
2021/12/26 08:34:22;;;;;;;29.17;15.93;;;;;;;8.03;71.31;95665.97;5071526;28;20437;-69
2021/12/26 08:36:50;;;;;;;25.40;15.40;;;;;;;8.11;71.33;95665.91;5067806;28;20519;-70
2021/12/26 08:39:15;;;;;;;26.60;15.50;;;;;;;8.18;70.85;95670.44;5071678;28;20510;-68
2021/12/26 08:41:41;;;;;;;30.87;18.20;;;;;;;8.20;70.87;95668.44;5071942;28;21038;-70
2021/12/26 08:44:06;;;;;;;29.30;16.83;;;;;;;8.23;70.63;95668.94;5061311;28;20207;-69
2021/12/26 08:46:33;;;;;;;34.57;21.10;;;;;;;8.31;70.51;95670.69;5071619;28;20178;-69
2021/12/26 08:48:59;;;;;;;31.17;18.20;;;;;;;8.39;70.80;95669.78;5071370;28;20186;-69
2021/12/26 08:51:25;;;;;;;31.47;16.20;;;;;;;8.38;70.34;95679.41;5070754;28;20968;-69
2021/12/26 08:53:50;;;;;;;28.50;16.57;;;;;;;8.36;70.45;95675.38;5071628;28;20209;-69
2021/12/26 08:56:16;;;;;;;27.83;15.97;;;;;;;8.38;70.35;95676.00;5072004;28;20189;-68
2021/12/26 08:58:41;;;;;;;25.50;16.00;;;;;;;8.52;70.05;95680.47;5044983;28;20249;-69
2021/12/26 09:01:07;;;;;;;33.20;16.53;;;;;;;8.34;69.54;95674.72;5069898;28;20217;-69
2021/12/26 09:03:37;;;;;;;27.43;16.10;;;;;;;8.40;69.98;95674.84;5071152;28;20202;-66
2021/12/26 09:06:03;;;;;;;31.93;16.40;;;;;;;8.43;69.46;95678.88;5067061;28;20178;-67
2021/12/26 09:08:28;;;;;;;34.23;20.53;;;;;;;8.32;70.09;95680.09;5071098;28;20469;-68
2021/12/26 09:10:55;;;;;;;34.90;20.17;;;;;;;8.06;71.04;95680.47;5070683;28;20214;-69
2021/12/26 09:13:20;;;;;;;23.60;14.83;;;;;;;8.39;69.75;95683.66;5071635;28;20183;-68
2021/12/26 09:15:46;;;;;;;26.93;17.37;;;;;;;8.38;70.11;95687.25;5072081;28;20471;-68
2021/12/26 09:18:11;;;;;;;24.70;14.03;;;;;;;8.54;69.58;95685.53;5072019;28;20178;-68
2021/12/26 09:20:37;;;;;;;29.80;19.60;;;;;;;8.52;69.67;95687.50;5070642;28;20174;-67
2021/12/26 09:23:03;;;;;;;27.83;18.27;;;;;;;8.50;69.29;95689.47;5059766;28;20266;-68
2021/12/26 09:25:29;;;;;;;29.27;19.03;;;;;;;8.65;69.29;95690.31;5064484;28;20199;-66
2021/12/26 09:27:55;;;;;;;29.63;18.17;;;;;;;8.73;69.09;95689.44;5068056;28;20428;-69
2021/12/26 09:30:21;;;;;;;25.67;14.87;;;;;;;8.76;68.94;95695.09;5071440;28;20201;-68
2021/12/26 09:32:47;;;;;;;26.17;15.20;;;;;;;8.85;68.94;95688.00;5071717;28;20563;-66
2021/12/26 09:35:13;;;;;;;24.80;14.83;;;;;;;8.86;69.13;95694.03;5053764;28;20451;-68
2021/12/26 09:37:39;;;;;;;24.83;15.33;;;;;;;8.78;68.86;95687.09;5069039;28;20486;-69
2021/12/26 09:40:06;;;;;;;22.40;14.93;;;;;;;8.85;69.05;95693.22;5062455;28;20424;-68
2021/12/26 09:42:33;;;;;;;23.47;15.30;;;;;;;8.84;68.71;95693.41;5071997;28;20232;-67
2021/12/26 09:45:00;;;;;;;22.67;15.50;;;;;;;8.79;68.90;95693.94;5066872;28;20447;-67
2021/12/26 09:47:25;;;;;;;24.27;17.00;;;;;;;8.89;69.17;95698.91;5072933;28;20429;-68
2021/12/26 09:49:51;;;;;;;26.03;15.60;;;;;;;8.96;69.06;95696.41;5073906;28;20420;-68
2021/12/26 09:52:16;;;;;;;22.97;15.47;;;;;;;9.01;68.37;95694.06;5072536;28;20261;-68
2021/12/26 09:54:43;;;;;;;24.53;16.20;;;;;;;9.06;68.75;95699.56;5073307;28;20198;-66
2021/12/26 09:57:09;;;;;;;23.83;15.80;;;;;;;9.13;68.58;95691.81;5072316;28;20255;-69
2021/12/26 09:59:34;;;;;;;31.27;16.00;;;;;;;9.06;68.32;95687.31;5074098;28;21002;-68
2021/12/26 10:02:11;;;;;;;24.60;15.40;;;;;;;9.07;68.96;95680.25;5075095;28;20185;-69
2021/12/26 10:04:38;;;;;;;22.90;14.77;;;;;;;9.09;69.25;95682.69;5066105;28;20275;-69
2021/12/26 10:07:06;;;;;;;23.57;16.03;;;;;;;9.21;68.54;95674.22;5070294;28;20425;-67
2021/12/26 10:09:32;;;;;;;19.67;14.37;;;;;;;9.35;68.52;95677.81;5075117;28;20435;-69
2021/12/26 10:11:59;;;;;;;21.33;14.67;;;;;;;9.34;68.40;95670.97;5073485;28;20468;-67
2021/12/26 10:14:28;;;;;;;22.30;14.60;;;;;;;9.37;68.26;95662.75;5074575;28;20495;-67
2021/12/26 10:16:59;;;;;;;22.17;14.83;;;;;;;9.51;68.08;95660.31;5073915;28;20424;-68
2021/12/26 10:19:25;;;;;;;19.97;13.80;;;;;;;9.52;68.41;95659.31;5074026;28;20424;-68
2021/12/26 10:21:55;;;;;;;19.87;14.10;;;;;;;9.60;67.71;95661.81;5069210;28;20966;-69
2021/12/26 10:24:22;;;;;;;19.27;12.77;;;;;;;9.76;67.43;95663.44;5073873;28;20577;-66
2021/12/26 10:26:52;;;;;;;20.70;14.13;;;;;;;9.71;67.69;95657.91;5066910;28;20420;-69
2021/12/26 10:29:38;;;;;;;21.60;13.67;;;;;;;9.72;67.53;95648.25;5074748;28;20457;-69
2021/12/26 10:32:07;;;;;;;20.67;14.33;;;;;;;9.72;67.80;95656.09;5073595;28;20464;-68
2021/12/26 10:34:40;;;;;;;22.50;14.17;;;;;;;9.89;67.31;95643.63;5075133;28;20432;-69
2021/12/26 10:37:11;;;;;;;18.80;12.90;;;;;;;9.89;67.73;95652.28;5070757;28;20494;-68
2021/12/26 10:39:47;;;;;;;20.80;13.70;;;;;;;9.91;67.66;95650.28;5075398;28;20931;-68
2021/12/26 10:42:16;;;;;;;22.90;13.93;;;;;;;9.75;68.25;95658.34;5073845;28;20455;-69
2021/12/26 10:45:06;;;;;;;19.50;13.50;;;;;;;9.96;68.16;95650.53;5073741;28;20445;-69
2021/12/26 10:47:35;;;;;;;19.87;13.70;;;;;;;10.01;67.59;95649.16;5066201;28;20490;-68
2021/12/26 10:50:03;;;;;;;20.67;13.73;;;;;;;9.91;68.20;95644.22;5073310;28;20477;-67
2021/12/26 10:52:52;;;;;;;23.50;13.87;;;;;;;9.88;68.36;95650.66;5067512;28;20414;-67
2021/12/26 10:55:20;;;;;;;17.83;13.03;;;;;;;10.02;68.16;95645.56;5058545;28;20528;-68
2021/12/26 10:57:50;;;;;;;19.03;14.07;;;;;;;10.00;68.32;95648.38;5069735;28;20413;-68
2021/12/26 11:00:26;;;;;;;19.97;14.17;;;;;;;9.81;69.47;95644.56;5057118;28;20532;-68
2021/12/26 11:02:54;;;;;;;18.80;12.43;;;;;;;10.10;69.04;95641.00;5073527;28;20521;-69
2021/12/26 11:05:25;;;;;;;17.17;12.57;;;;;;;10.38;68.24;95634.22;5071699;28;20429;-68
2021/12/26 11:07:56;;;;;;;17.03;12.27;;;;;;;10.56;67.89;95631.13;5067324;28;21038;-68
2021/12/26 11:10:23;;;;;;;16.00;11.27;;;;;;;10.82;67.49;95633.13;5073141;28;20501;-69
2021/12/26 11:12:52;;;;;;;47.27;12.77;;;;;;;10.86;67.48;95626.47;5072372;28;20434;-69
2021/12/26 11:15:19;;;;;;;15.73;10.33;;;;;;;11.04;67.03;95627.81;5064557;28;20441;-68
2021/12/26 11:17:51;;;;;;;15.40;9.83;;;;;;;11.21;66.09;95621.22;5046975;28;20529;-68
2021/12/26 11:20:22;;;;;;;16.73;11.97;;;;;;;11.26;66.01;95622.44;5057714;28;20417;-68
2021/12/26 11:22:48;;;;;;;16.67;11.87;;;;;;;11.00;66.07;95619.53;5069739;28;20421;-66
2021/12/26 11:25:14;;;;;;;13.87;9.80;;;;;;;11.19;65.90;95625.88;5073230;28;20504;-68
2021/12/26 11:27:40;;;;;;;24.70;15.30;;;;;;;11.15;66.21;95629.06;5073074;28;20206;-68